sensor_id;sensor_type;location;lat;lon;timestamp;pressure;altitude;pressure_sealevel;temperature;humidity
52343;BME280;38277;51.972;4.624;2023-04-07T00:05:44;101710.0;;;10.0;88.5
52343;BME280;38277;51.972;4.624;2023-04-07T00:08:55;101710.0;;;10.0;88.5
52343;BME280;38277;51.972;4.624;2023-04-07T00:17:46;101710.0;;;10.0;88.0
52343;BME280;38277;51.972;4.624;2023-04-07T00:24:00;101720.0;;;10.0;88.0
52343;BME280;38277;51.972;4.624;2023-04-07T00:26:29;101720.0;;;10.0;88.0
52343;BME280;38277;51.972;4.624;2023-04-07T00:31:18;101720.0;;;10.1;88.0
52343;BME280;38277;51.972;4.624;2023-04-07T00:35:39;101720.0;;;10.1;88.0
52343;BME280;38277;51.972;4.624;2023-04-07T00:41:36;101720.0;;;10.1;88.0
52343;BME280;38277;51.972;4.624;2023-04-07T00:44:48;101730.0;;;10.1;88.0
52343;BME280;38277;51.972;4.624;2023-04-07T00:51:02;101730.0;;;10.1;87.5
52343;BME280;38277;51.972;4.624;2023-04-07T00:53:39;101720.0;;;10.0;87.0
52343;BME280;38277;51.972;4.624;2023-04-07T00:59:42;101720.0;;;10.0;87.0
52343;BME280;38277;51.972;4.624;2023-04-07T01:03:05;101720.0;;;9.9;87.0
52343;BME280;38277;51.972;4.624;2023-04-07T01:07:23;101720.0;;;9.8;86.5
52343;BME280;38277;51.972;4.624;2023-04-07T01:11:50;101720.0;;;9.7;86.5
52343;BME280;38277;51.972;4.624;2023-04-07T01:17:41;101720.0;;;9.6;87.0
52343;BME280;38277;51.972;4.624;2023-04-07T01:20:32;101730.0;;;9.5;87.0
52343;BME280;38277;51.972;4.624;2023-04-07T01:25:59;101730.0;;;9.3;87.0
52343;BME280;38277;51.972;4.624;2023-04-07T01:29:54;101730.0;;;9.2;87.5
52343;BME280;38277;51.972;4.624;2023-04-07T01:35:58;101730.0;;;9.1;87.5
52343;BME280;38277;51.972;4.624;2023-04-07T01:38:43;101730.0;;;9.0;88.0
52343;BME280;38277;51.972;4.624;2023-04-07T01:43:15;101740.0;;;9.0;88.0
52343;BME280;38277;51.972;4.624;2023-04-07T01:47:42;101750.0;;;8.9;88.5
52343;BME280;38277;51.972;4.624;2023-04-07T01:53:38;101740.0;;;8.9;89.0
52343;BME280;38277;51.972;4.624;2023-04-07T01:56:53;101740.0;;;8.8;89.0
52343;BME280;38277;51.972;4.624;2023-04-07T02:01:22;101740.0;;;8.8;89.0
52343;BME280;38277;51.972;4.624;2023-04-07T02:06:03;101740.0;;;8.8;89.5
52343;BME280;38277;51.972;4.624;2023-04-07T02:11:42;101750.0;;;8.8;89.5
52343;BME280;38277;51.972;4.624;2023-04-07T02:14:36;101730.0;;;8.8;90.0
52343;BME280;38277;51.972;4.624;2023-04-07T02:19:07;101740.0;;;8.9;90.0
52343;BME280;38277;51.972;4.624;2023-04-07T02:23:59;101730.0;;;9.0;90.5
52343;BME280;38277;51.972;4.624;2023-04-07T02:29:36;101740.0;;;9.0;90.5
52343;BME280;38277;51.972;4.624;2023-04-07T02:32:34;101750.0;;;9.0;90.0
52343;BME280;38277;51.972;4.624;2023-04-07T02:37:07;101740.0;;;9.0;90.0
52343;BME280;38277;51.972;4.624;2023-04-07T02:41:55;101740.0;;;9.0;90.0
52343;BME280;38277;51.972;4.624;2023-04-07T02:47:43;101750.0;;;8.9;90.0
52343;BME280;38277;51.972;4.624;2023-04-07T02:50:27;101750.0;;;8.9;90.0
52343;BME280;38277;51.972;4.624;2023-04-07T02:55:23;101750.0;;;8.9;90.0
52343;BME280;38277;51.972;4.624;2023-04-07T02:59:29;101750.0;;;9.0;90.5
52343;BME280;38277;51.972;4.624;2023-04-07T03:05:40;101740.0;;;9.0;90.5
52343;BME280;38277;51.972;4.624;2023-04-07T03:08:49;101740.0;;;9.0;91.0
52343;BME280;38277;51.972;4.624;2023-04-07T03:14:41;101740.0;;;9.1;91.0
52343;BME280;38277;51.972;4.624;2023-04-07T03:17:28;101750.0;;;9.1;91.0
52343;BME280;38277;51.972;4.624;2023-04-07T03:23:50;101750.0;;;9.2;91.0
52343;BME280;38277;51.972;4.624;2023-04-07T03:26:44;101750.0;;;9.3;91.0
52343;BME280;38277;51.972;4.624;2023-04-07T03:35:35;101750.0;;;9.3;91.0
52343;BME280;38277;51.972;4.624;2023-04-07T03:41:38;101750.0;;;9.4;91.0
52343;BME280;38277;51.972;4.624;2023-04-07T03:44:54;101750.0;;;9.5;90.5
52343;BME280;38277;51.972;4.624;2023-04-07T03:53:32;101750.0;;;9.5;90.5
52343;BME280;38277;51.972;4.624;2023-04-07T03:59:49;101750.0;;;9.6;90.5
52343;BME280;38277;51.972;4.624;2023-04-07T04:02:35;101750.0;;;9.6;90.5
52343;BME280;38277;51.972;4.624;2023-04-07T04:07:18;101750.0;;;9.6;90.5
52343;BME280;38277;51.972;4.624;2023-04-07T04:11:41;101750.0;;;9.7;90.5
52343;BME280;38277;51.972;4.624;2023-04-07T04:18:04;101760.0;;;9.7;90.5
52343;BME280;38277;51.972;4.624;2023-04-07T04:20:39;101760.0;;;9.8;90.0
52343;BME280;38277;51.972;4.624;2023-04-07T04:25:20;101770.0;;;9.8;89.5
52343;BME280;38277;51.972;4.624;2023-04-07T04:29:29;101780.0;;;9.9;89.5
52343;BME280;38277;51.972;4.624;2023-04-07T04:35:39;101780.0;;;9.9;89.0
52343;BME280;38277;51.972;4.624;2023-04-07T04:38:35;101780.0;;;9.9;88.5
52343;BME280;38277;51.972;4.624;2023-04-07T04:47:32;101780.0;;;9.9;88.5
52343;BME280;38277;51.972;4.624;2023-04-07T04:53:37;101780.0;;;9.9;88.0
52343;BME280;38277;51.972;4.624;2023-04-07T04:56:49;101790.0;;;9.9;87.5
52343;BME280;38277;51.972;4.624;2023-04-07T05:00:56;101790.0;;;9.9;87.5
52343;BME280;38277;51.972;4.624;2023-04-07T05:05:35;101780.0;;;9.9;87.5
52343;BME280;38277;51.972;4.624;2023-04-07T05:12:00;101780.0;;;9.9;87.0
52343;BME280;38277;51.972;4.624;2023-04-07T05:14:51;101790.0;;;9.9;87.0
52343;BME280;38277;51.972;4.624;2023-04-07T05:23:37;101800.0;;;9.9;87.0
52343;BME280;38277;51.972;4.624;2023-04-07T05:29:52;101800.0;;;9.9;86.5
52343;BME280;38277;51.972;4.624;2023-04-07T05:32:35;101810.0;;;9.9;86.5
52343;BME280;38277;51.972;4.624;2023-04-07T05:37:08;101820.0;;;9.9;86.0
52343;BME280;38277;51.972;4.624;2023-04-07T05:41:33;101810.0;;;9.9;85.5
52343;BME280;38277;51.972;4.624;2023-04-07T05:48:04;101810.0;;;9.9;85.5
52343;BME280;38277;51.972;4.624;2023-04-07T05:50:47;101820.0;;;10.0;85.0
52343;BME280;38277;51.972;4.624;2023-04-07T05:55:00;101820.0;;;10.0;84.0
52343;BME280;38277;51.972;4.624;2023-04-07T05:59:50;101820.0;;;10.0;83.5
52343;BME280;38277;51.972;4.624;2023-04-07T06:05:37;101830.0;;;10.1;83.0
52343;BME280;38277;51.972;4.624;2023-04-07T06:08:32;101830.0;;;10.1;83.0
52343;BME280;38277;51.972;4.624;2023-04-07T06:13:24;101840.0;;;10.2;82.5
52343;BME280;38277;51.972;4.624;2023-04-07T06:17:32;101840.0;;;10.2;82.5
52343;BME280;38277;51.972;4.624;2023-04-07T06:23:44;101840.0;;;10.3;82.0
52343;BME280;38277;51.972;4.624;2023-04-07T06:26:40;101840.0;;;10.4;81.5
52343;BME280;38277;51.972;4.624;2023-04-07T06:31:04;101840.0;;;10.5;81.5
52343;BME280;38277;51.972;4.624;2023-04-07T06:35:55;101840.0;;;10.6;81.0
52343;BME280;38277;51.972;4.624;2023-04-07T06:41:51;101850.0;;;10.7;80.5
52343;BME280;38277;51.972;4.624;2023-04-07T06:44:41;101840.0;;;10.8;80.0
52343;BME280;38277;51.972;4.624;2023-04-07T06:55:17;101850.0;;;11.1;79.0
52343;BME280;38277;51.972;4.624;2023-04-07T07:05:39;101860.0;;;11.2;77.5
52343;BME280;38277;51.972;4.624;2023-04-07T07:08:40;101880.0;;;11.2;77.0
52343;BME280;38277;51.972;4.624;2023-04-07T07:16:19;101890.0;;;11.1;76.5
52343;BME280;38277;51.972;4.624;2023-04-07T07:22:21;101890.0;;;11.1;76.0
52343;BME280;38277;51.972;4.624;2023-04-07T07:32:28;101910.0;;;10.9;75.0
52343;BME280;38277;51.972;4.624;2023-04-07T07:35:29;101910.0;;;11.0;75.0
52343;BME280;38277;51.972;4.624;2023-04-07T07:41:32;101910.0;;;11.0;75.0
52343;BME280;38277;51.972;4.624;2023-04-07T07:47:42;101920.0;;;11.2;75.0
52343;BME280;38277;51.972;4.624;2023-04-07T07:56:45;101930.0;;;11.3;74.0
52343;BME280;38277;51.972;4.624;2023-04-07T08:00:58;101930.0;;;11.3;73.0
52343;BME280;38277;51.972;4.624;2023-04-07T08:07:00;101920.0;;;11.3;73.0
52343;BME280;38277;51.972;4.624;2023-04-07T08:17:37;101940.0;;;11.4;72.0
52343;BME280;38277;51.972;4.624;2023-04-07T08:23:39;101940.0;;;11.4;71.5
52343;BME280;38277;51.972;4.624;2023-04-07T08:28:07;101950.0;;;11.5;69.5
52343;BME280;38277;51.972;4.624;2023-04-07T08:34:09;101950.0;;;11.6;69.5
52343;BME280;38277;51.972;4.624;2023-04-07T08:40:11;101950.0;;;11.7;69.0
52343;BME280;38277;51.972;4.624;2023-04-07T08:49:16;101960.0;;;11.8;68.0
52343;BME280;38277;51.972;4.624;2023-04-07T08:52:22;101950.0;;;11.7;68.0
52343;BME280;38277;51.972;4.624;2023-04-07T08:59:48;101960.0;;;11.7;68.5
52343;BME280;38277;51.972;4.624;2023-04-07T09:05:50;101970.0;;;11.7;68.5
52343;BME280;38277;51.972;4.624;2023-04-07T09:16:20;101990.0;;;11.8;69.0
52343;BME280;38277;51.972;4.624;2023-04-07T09:19:23;101980.0;;;11.8;69.5
52343;BME280;38277;51.972;4.624;2023-04-07T09:26:39;101980.0;;;11.8;69.0
52343;BME280;38277;51.972;4.624;2023-04-07T09:32:41;101970.0;;;11.9;69.0
52343;BME280;38277;51.972;4.624;2023-04-07T09:43:21;101980.0;;;12.2;67.0
52343;BME280;38277;51.972;4.624;2023-04-07T09:46:22;101990.0;;;12.2;68.0
52343;BME280;38277;51.972;4.624;2023-04-07T09:53:55;102000.0;;;12.1;67.5
52343;BME280;38277;51.972;4.624;2023-04-07T09:59:58;102000.0;;;12.2;68.0
52343;BME280;38277;51.972;4.624;2023-04-07T10:10:09;101990.0;;;12.5;66.5
52343;BME280;38277;51.972;4.624;2023-04-07T10:13:11;102000.0;;;12.5;66.0
52343;BME280;38277;51.972;4.624;2023-04-07T10:23:44;102000.0;;;12.6;65.5
52343;BME280;38277;51.972;4.624;2023-04-07T10:26:37;102010.0;;;12.6;65.5
52343;BME280;38277;51.972;4.624;2023-04-07T10:40:29;102020.0;;;12.3;65.5
52343;BME280;38277;51.972;4.624;2023-04-07T10:48:10;102030.0;;;12.5;66.0
52343;BME280;38277;51.972;4.624;2023-04-07T10:54:20;102020.0;;;12.5;66.0
52343;BME280;38277;51.972;4.624;2023-04-07T11:03:59;102030.0;;;12.6;67.0
52343;BME280;38277;51.972;4.624;2023-04-07T11:07:00;102030.0;;;12.7;66.0
52343;BME280;38277;51.972;4.624;2023-04-07T11:13:06;102040.0;;;12.5;66.5
52343;BME280;38277;51.972;4.624;2023-04-07T11:22:13;102040.0;;;12.3;68.0
52343;BME280;38277;51.972;4.624;2023-04-07T11:28:09;102040.0;;;12.4;68.5
52343;BME280;38277;51.972;4.624;2023-04-07T11:32:34;102040.0;;;12.4;68.0
52343;BME280;38277;51.972;4.624;2023-04-07T11:38:37;102050.0;;;12.6;67.5
52343;BME280;38277;51.972;4.624;2023-04-07T11:44:43;102050.0;;;12.6;66.5
52343;BME280;38277;51.972;4.624;2023-04-07T11:53:41;102060.0;;;12.5;67.0
52343;BME280;38277;51.972;4.624;2023-04-07T11:56:47;102060.0;;;12.5;66.5
52343;BME280;38277;51.972;4.624;2023-04-07T12:04:18;102080.0;;;12.2;67.0
52343;BME280;38277;51.972;4.624;2023-04-07T12:10:20;102080.0;;;12.2;67.0
52343;BME280;38277;51.972;4.624;2023-04-07T12:20:56;102090.0;;;12.1;67.0
52343;BME280;38277;51.972;4.624;2023-04-07T12:23:57;102090.0;;;12.1;67.0
52343;BME280;38277;51.972;4.624;2023-04-07T12:31:05;102090.0;;;12.4;66.0
52343;BME280;38277;51.972;4.624;2023-04-07T12:37:07;102080.0;;;12.5;65.0
52343;BME280;38277;51.972;4.624;2023-04-07T12:47:50;102090.0;;;12.7;63.5
52343;BME280;38277;51.972;4.624;2023-04-07T12:50:52;102100.0;;;12.8;63.5
52343;BME280;38277;51.972;4.624;2023-04-07T12:58:23;102110.0;;;12.7;64.0
52343;BME280;38277;51.972;4.624;2023-04-07T13:04:24;102100.0;;;12.8;64.0
52343;BME280;38277;51.972;4.624;2023-04-07T13:14:49;102100.0;;;12.7;64.0
52343;BME280;38277;51.972;4.624;2023-04-07T13:17:50;102110.0;;;12.7;64.5
52343;BME280;38277;51.972;4.624;2023-04-07T13:25:12;102120.0;;;12.6;64.5
52343;BME280;38277;51.972;4.624;2023-04-07T13:31:14;102110.0;;;12.5;65.0
52343;BME280;38277;51.972;4.624;2023-04-07T13:41:45;102120.0;;;12.6;65.0
52343;BME280;38277;51.972;4.624;2023-04-07T13:44:46;102120.0;;;12.6;65.0
52343;BME280;38277;51.972;4.624;2023-04-07T13:52:21;102120.0;;;12.6;65.0
52343;BME280;38277;51.972;4.624;2023-04-07T13:58:24;102130.0;;;12.4;65.5
52343;BME280;38277;51.972;4.624;2023-04-07T14:08:57;102130.0;;;12.1;67.0
52343;BME280;38277;51.972;4.624;2023-04-07T14:11:58;102140.0;;;12.1;67.5
52343;BME280;38277;51.972;4.624;2023-04-07T14:19:22;102140.0;;;12.0;68.0
52343;BME280;38277;51.972;4.624;2023-04-07T14:28:25;102140.0;;;12.0;68.0
52343;BME280;38277;51.972;4.624;2023-04-07T14:35:29;102130.0;;;11.9;68.0
52343;BME280;38277;51.972;4.624;2023-04-07T14:41:32;102130.0;;;12.0;68.0
52343;BME280;38277;51.972;4.624;2023-04-07T14:46:01;102140.0;;;12.0;68.0
52343;BME280;38277;51.972;4.624;2023-04-07T14:52:08;102140.0;;;12.0;68.0
52343;BME280;38277;51.972;4.624;2023-04-07T15:01:07;102140.0;;;12.1;68.0
52343;BME280;38277;51.972;4.624;2023-04-07T15:04:14;102140.0;;;12.5;67.5
52343;BME280;38277;51.972;4.624;2023-04-07T15:10:16;102150.0;;;12.6;66.5
52343;BME280;38277;51.972;4.624;2023-04-07T15:17:49;102150.0;;;12.7;66.0
52343;BME280;38277;51.972;4.624;2023-04-07T15:26:52;102140.0;;;12.7;65.5
52343;BME280;38277;51.972;4.624;2023-04-07T15:31:23;102160.0;;;12.6;65.5
52343;BME280;38277;51.972;4.624;2023-04-07T15:37:26;102160.0;;;12.5;66.0
52343;BME280;38277;51.972;4.624;2023-04-07T15:44:40;102160.0;;;12.5;66.5
52343;BME280;38277;51.972;4.624;2023-04-07T15:53:43;102150.0;;;12.5;66.0
52343;BME280;38277;51.972;4.624;2023-04-07T15:58:02;102160.0;;;12.3;66.0
52343;BME280;38277;51.972;4.624;2023-04-07T16:07:07;102170.0;;;12.2;66.5
52343;BME280;38277;51.972;4.624;2023-04-07T16:10:06;102170.0;;;12.1;67.0
52343;BME280;38277;51.972;4.624;2023-04-07T16:19:09;102180.0;;;12.0;67.5
52343;BME280;38277;51.972;4.624;2023-04-07T16:22:10;102180.0;;;11.9;68.0
52343;BME280;38277;51.972;4.624;2023-04-07T16:29:32;102180.0;;;11.8;69.0
52343;BME280;38277;51.972;4.624;2023-04-07T16:38:34;102190.0;;;11.8;69.0
52343;BME280;38277;51.972;4.624;2023-04-07T16:44:36;102190.0;;;11.8;69.0
52343;BME280;38277;51.972;4.624;2023-04-07T16:47:38;102200.0;;;11.6;69.5
52343;BME280;38277;51.972;4.624;2023-04-07T16:53:39;102200.0;;;11.5;69.5
52343;BME280;38277;51.972;4.624;2023-04-07T17:01:02;102220.0;;;11.5;70.0
52343;BME280;38277;51.972;4.624;2023-04-07T17:10:06;102220.0;;;11.5;69.5
52343;BME280;38277;51.972;4.624;2023-04-07T17:14:40;102230.0;;;11.4;69.5
52343;BME280;38277;51.972;4.624;2023-04-07T17:20:42;102230.0;;;11.3;70.0
52343;BME280;38277;51.972;4.624;2023-04-07T17:27:59;102250.0;;;11.3;70.5
52343;BME280;38277;51.972;4.624;2023-04-07T17:37:02;102250.0;;;11.3;70.5
52343;BME280;38277;51.972;4.624;2023-04-07T17:41:32;102270.0;;;11.1;71.5
52343;BME280;38277;51.972;4.624;2023-04-07T17:47:34;102270.0;;;11.1;72.0
52343;BME280;38277;51.972;4.624;2023-04-07T17:52:47;102270.0;;;11.0;72.5
52343;BME280;38277;51.972;4.624;2023-04-07T17:55:48;102270.0;;;11.0;73.0
52343;BME280;38277;51.972;4.624;2023-04-07T18:04:00;102280.0;;;10.9;73.5
52343;BME280;38277;51.972;4.624;2023-04-07T18:08:51;102280.0;;;10.8;74.0
52343;BME280;38277;51.972;4.624;2023-04-07T18:12:59;102290.0;;;10.8;74.5
52343;BME280;38277;51.972;4.624;2023-04-07T18:17:29;102290.0;;;10.8;74.5
52343;BME280;38277;51.972;4.624;2023-04-07T18:22:16;102300.0;;;10.8;75.0
52343;BME280;38277;51.972;4.624;2023-04-07T18:26:29;102300.0;;;10.8;75.0
52343;BME280;38277;51.972;4.624;2023-04-07T18:31:21;102310.0;;;10.7;75.5
52343;BME280;38277;51.972;4.624;2023-04-07T18:40:05;102320.0;;;10.7;76.0
52343;BME280;38277;51.972;4.624;2023-04-07T18:44:28;102320.0;;;10.7;76.5
52343;BME280;38277;51.972;4.624;2023-04-07T18:48:58;102340.0;;;10.7;76.5
52343;BME280;38277;51.972;4.624;2023-04-07T18:53:43;102340.0;;;10.7;77.0
52343;BME280;38277;51.972;4.624;2023-04-07T18:58:24;102350.0;;;10.7;77.0
52343;BME280;38277;51.972;4.624;2023-04-07T19:02:41;102350.0;;;10.7;77.0
52343;BME280;38277;51.972;4.624;2023-04-07T19:07:18;102360.0;;;10.7;77.5
52343;BME280;38277;51.972;4.624;2023-04-07T19:16:16;102370.0;;;10.7;78.0
52343;BME280;38277;51.972;4.624;2023-04-07T19:25:07;102370.0;;;10.7;78.0
52343;BME280;38277;51.972;4.624;2023-04-07T19:29:36;102370.0;;;10.7;78.0
52343;BME280;38277;51.972;4.624;2023-04-07T19:33:58;102370.0;;;10.7;78.0
52343;BME280;38277;51.972;4.624;2023-04-07T19:38:52;102360.0;;;10.7;78.0
52343;BME280;38277;51.972;4.624;2023-04-07T19:43:19;102370.0;;;10.7;78.0
52343;BME280;38277;51.972;4.624;2023-04-07T19:52:16;102380.0;;;10.7;78.5
52343;BME280;38277;51.972;4.624;2023-04-07T19:56:44;102390.0;;;10.7;78.5
52343;BME280;38277;51.972;4.624;2023-04-07T20:05:41;102390.0;;;10.7;78.5
52343;BME280;38277;51.972;4.624;2023-04-07T20:10:37;102390.0;;;10.6;78.5
52343;BME280;38277;51.972;4.624;2023-04-07T20:19:41;102400.0;;;10.6;79.0
52343;BME280;38277;51.972;4.624;2023-04-07T20:23:33;102400.0;;;10.6;79.0
52343;BME280;38277;51.972;4.624;2023-04-07T20:29:35;102400.0;;;10.6;79.5
52343;BME280;38277;51.972;4.624;2023-04-07T20:37:03;102400.0;;;10.6;79.5
52343;BME280;38277;51.972;4.624;2023-04-07T20:46:06;102400.0;;;10.6;79.5
52343;BME280;38277;51.972;4.624;2023-04-07T20:50:43;102410.0;;;10.7;79.5
52343;BME280;38277;51.972;4.624;2023-04-07T20:56:45;102410.0;;;10.7;80.0
52343;BME280;38277;51.972;4.624;2023-04-07T21:03:57;102420.0;;;10.7;80.0
52343;BME280;38277;51.972;4.624;2023-04-07T21:13:00;102420.0;;;10.7;80.0
52343;BME280;38277;51.972;4.624;2023-04-07T21:16:01;102420.0;;;10.7;80.0
52343;BME280;38277;51.972;4.624;2023-04-07T21:22:22;102420.0;;;10.7;80.0
52343;BME280;38277;51.972;4.624;2023-04-07T21:31:25;102420.0;;;10.6;80.5
52343;BME280;38277;51.972;4.624;2023-04-07T21:38:34;102420.0;;;10.7;80.5
52343;BME280;38277;51.972;4.624;2023-04-07T21:41:35;102430.0;;;10.7;80.5
52343;BME280;38277;51.972;4.624;2023-04-07T21:52:12;102430.0;;;10.6;80.5
52343;BME280;38277;51.972;4.624;2023-04-07T21:55:13;102420.0;;;10.6;80.5
52343;BME280;38277;51.972;4.624;2023-04-07T22:05:45;102440.0;;;10.6;81.0
52343;BME280;38277;51.972;4.624;2023-04-07T22:11:46;102440.0;;;10.6;81.0
52343;BME280;38277;51.972;4.624;2023-04-07T22:15:58;102440.0;;;10.6;81.0
52343;BME280;38277;51.972;4.624;2023-04-07T22:21:59;102450.0;;;10.6;81.0
52343;BME280;38277;51.972;4.624;2023-04-07T22:32:42;102450.0;;;10.6;81.0
52343;BME280;38277;51.972;4.624;2023-04-07T22:35:43;102460.0;;;10.6;81.0
52343;BME280;38277;51.972;4.624;2023-04-07T22:43:05;102460.0;;;10.6;81.5
52343;BME280;38277;51.972;4.624;2023-04-07T22:49:07;102450.0;;;10.6;81.5
52343;BME280;38277;51.972;4.624;2023-04-07T22:59:53;102460.0;;;10.6;81.5
52343;BME280;38277;51.972;4.624;2023-04-07T23:02:53;102460.0;;;10.6;81.5
52343;BME280;38277;51.972;4.624;2023-04-07T23:10:14;102470.0;;;10.7;81.5
52343;BME280;38277;51.972;4.624;2023-04-07T23:16:16;102480.0;;;10.7;81.5
52343;BME280;38277;51.972;4.624;2023-04-07T23:26:40;102490.0;;;10.7;81.5
52343;BME280;38277;51.972;4.624;2023-04-07T23:29:41;102490.0;;;10.7;81.0
52343;BME280;38277;51.972;4.624;2023-04-07T23:37:00;102490.0;;;10.7;81.5
52343;BME280;38277;51.972;4.624;2023-04-07T23:43:02;102490.0;;;10.7;81.5
52343;BME280;38277;51.972;4.624;2023-04-07T23:53:33;102490.0;;;10.7;81.5
52343;BME280;38277;51.972;4.624;2023-04-07T23:56:34;102490.0;;;10.7;81.5
